sensor_id;sensor_type;location;lat;lon;timestamp;P1;durP1;ratioP1;P2;durP2;ratioP2
37903;SDS011;23738;50.422;18.758;2024-03-06T00:00:48;88.40;;;42.10;;
37903;SDS011;23738;50.422;18.758;2024-03-06T00:03:18;82.60;;;41.90;;
37903;SDS011;23738;50.422;18.758;2024-03-06T00:05:48;92.30;;;44.90;;
37903;SDS011;23738;50.422;18.758;2024-03-06T00:08:18;91.80;;;44.90;;
37903;SDS011;23738;50.422;18.758;2024-03-06T00:10:48;90.20;;;46.50;;
37903;SDS011;23738;50.422;18.758;2024-03-06T00:13:17;97.00;;;47.60;;
37903;SDS011;23738;50.422;18.758;2024-03-06T00:15:47;107.90;;;48.90;;
37903;SDS011;23738;50.422;18.758;2024-03-06T00:21:40;98.80;;;44.00;;
37903;SDS011;23738;50.422;18.758;2024-03-06T00:24:12;96.20;;;42.70;;
37903;SDS011;23738;50.422;18.758;2024-03-06T00:26:43;89.00;;;40.80;;
37903;SDS011;23738;50.422;18.758;2024-03-06T00:29:13;110.10;;;43.10;;
37903;SDS011;23738;50.422;18.758;2024-03-06T00:31:43;101.50;;;42.60;;
37903;SDS011;23738;50.422;18.758;2024-03-06T00:34:13;122.40;;;43.80;;
37903;SDS011;23738;50.422;18.758;2024-03-06T00:36:43;85.90;;;40.30;;
37903;SDS011;23738;50.422;18.758;2024-03-06T00:39:13;93.10;;;40.70;;
37903;SDS011;23738;50.422;18.758;2024-03-06T00:41:43;70.60;;;37.10;;
37903;SDS011;23738;50.422;18.758;2024-03-06T00:44:13;81.50;;;35.70;;
37903;SDS011;23738;50.422;18.758;2024-03-06T00:46:43;72.00;;;37.10;;
37903;SDS011;23738;50.422;18.758;2024-03-06T00:49:13;75.40;;;35.40;;
37903;SDS011;23738;50.422;18.758;2024-03-06T00:51:43;88.70;;;37.30;;
37903;SDS011;23738;50.422;18.758;2024-03-06T00:54:13;69.00;;;37.10;;
37903;SDS011;23738;50.422;18.758;2024-03-06T00:56:43;86.30;;;36.60;;
37903;SDS011;23738;50.422;18.758;2024-03-06T00:59:12;68.90;;;35.20;;
37903;SDS011;23738;50.422;18.758;2024-03-06T01:01:42;66.20;;;34.20;;
37903;SDS011;23738;50.422;18.758;2024-03-06T01:04:12;65.90;;;34.00;;
37903;SDS011;23738;50.422;18.758;2024-03-06T01:06:42;61.70;;;31.20;;
37903;SDS011;23738;50.422;18.758;2024-03-06T01:09:12;53.10;;;31.40;;
37903;SDS011;23738;50.422;18.758;2024-03-06T01:11:42;55.10;;;31.20;;
37903;SDS011;23738;50.422;18.758;2024-03-06T01:14:13;66.70;;;32.10;;
37903;SDS011;23738;50.422;18.758;2024-03-06T01:16:43;65.80;;;33.10;;
37903;SDS011;23738;50.422;18.758;2024-03-06T01:19:13;61.40;;;33.10;;
37903;SDS011;23738;50.422;18.758;2024-03-06T01:21:42;64.80;;;33.50;;
37903;SDS011;23738;50.422;18.758;2024-03-06T01:24:12;75.70;;;33.70;;
37903;SDS011;23738;50.422;18.758;2024-03-06T01:26:42;62.30;;;31.80;;
37903;SDS011;23738;50.422;18.758;2024-03-06T01:29:11;60.80;;;30.90;;
37903;SDS011;23738;50.422;18.758;2024-03-06T01:31:41;58.40;;;32.50;;
37903;SDS011;23738;50.422;18.758;2024-03-06T01:34:13;54.40;;;29.50;;
37903;SDS011;23738;50.422;18.758;2024-03-06T01:36:42;64.00;;;32.20;;
37903;SDS011;23738;50.422;18.758;2024-03-06T01:39:12;59.40;;;32.80;;
37903;SDS011;23738;50.422;18.758;2024-03-06T01:41:46;56.20;;;31.00;;
37903;SDS011;23738;50.422;18.758;2024-03-06T01:44:16;56.20;;;29.70;;
37903;SDS011;23738;50.422;18.758;2024-03-06T01:46:46;57.40;;;30.70;;
37903;SDS011;23738;50.422;18.758;2024-03-06T01:49:16;49.30;;;29.60;;
37903;SDS011;23738;50.422;18.758;2024-03-06T01:51:48;57.60;;;28.00;;
37903;SDS011;23738;50.422;18.758;2024-03-06T01:54:20;55.70;;;30.40;;
37903;SDS011;23738;50.422;18.758;2024-03-06T01:56:50;61.10;;;30.60;;
37903;SDS011;23738;50.422;18.758;2024-03-06T01:59:22;63.90;;;30.50;;
37903;SDS011;23738;50.422;18.758;2024-03-06T02:01:54;55.00;;;29.80;;
37903;SDS011;23738;50.422;18.758;2024-03-06T02:04:24;74.20;;;30.60;;
37903;SDS011;23738;50.422;18.758;2024-03-06T02:06:55;51.60;;;28.90;;
37903;SDS011;23738;50.422;18.758;2024-03-06T02:09:25;49.90;;;28.40;;
37903;SDS011;23738;50.422;18.758;2024-03-06T02:11:55;52.50;;;27.20;;
37903;SDS011;23738;50.422;18.758;2024-03-06T02:14:25;54.10;;;28.30;;
37903;SDS011;23738;50.422;18.758;2024-03-06T02:16:54;53.60;;;28.50;;
37903;SDS011;23738;50.422;18.758;2024-03-06T02:19:24;53.50;;;29.90;;
37903;SDS011;23738;50.422;18.758;2024-03-06T02:22:04;51.90;;;28.80;;
37903;SDS011;23738;50.422;18.758;2024-03-06T02:24:34;69.20;;;30.40;;
37903;SDS011;23738;50.422;18.758;2024-03-06T02:27:04;58.20;;;29.30;;
37903;SDS011;23738;50.422;18.758;2024-03-06T02:29:34;57.70;;;27.80;;
37903;SDS011;23738;50.422;18.758;2024-03-06T02:32:05;69.90;;;29.60;;
37903;SDS011;23738;50.422;18.758;2024-03-06T02:34:35;50.20;;;27.60;;
37903;SDS011;23738;50.422;18.758;2024-03-06T02:37:04;49.30;;;27.50;;
37903;SDS011;23738;50.422;18.758;2024-03-06T02:39:34;52.90;;;28.40;;
37903;SDS011;23738;50.422;18.758;2024-03-06T02:42:04;52.70;;;29.10;;
37903;SDS011;23738;50.422;18.758;2024-03-06T02:44:34;56.50;;;29.30;;
37903;SDS011;23738;50.422;18.758;2024-03-06T02:47:04;57.50;;;28.60;;
37903;SDS011;23738;50.422;18.758;2024-03-06T02:49:34;50.00;;;28.80;;
37903;SDS011;23738;50.422;18.758;2024-03-06T02:52:03;51.40;;;26.60;;
37903;SDS011;23738;50.422;18.758;2024-03-06T02:54:33;53.60;;;27.70;;
37903;SDS011;23738;50.422;18.758;2024-03-06T02:57:03;48.00;;;26.40;;
37903;SDS011;23738;50.422;18.758;2024-03-06T02:59:33;48.80;;;26.00;;
37903;SDS011;23738;50.422;18.758;2024-03-06T03:02:03;59.20;;;26.40;;
37903;SDS011;23738;50.422;18.758;2024-03-06T03:04:33;49.30;;;27.60;;
37903;SDS011;23738;50.422;18.758;2024-03-06T03:07:02;54.70;;;28.60;;
37903;SDS011;23738;50.422;18.758;2024-03-06T03:09:32;57.70;;;28.80;;
37903;SDS011;23738;50.422;18.758;2024-03-06T03:12:03;55.50;;;30.00;;
37903;SDS011;23738;50.422;18.758;2024-03-06T03:14:32;52.00;;;27.90;;
37903;SDS011;23738;50.422;18.758;2024-03-06T03:17:02;50.60;;;27.40;;
37903;SDS011;23738;50.422;18.758;2024-03-06T03:19:33;54.20;;;28.30;;
37903;SDS011;23738;50.422;18.758;2024-03-06T03:22:02;46.80;;;27.50;;
37903;SDS011;23738;50.422;18.758;2024-03-06T03:24:32;47.80;;;27.20;;
37903;SDS011;23738;50.422;18.758;2024-03-06T03:27:02;52.30;;;28.10;;
37903;SDS011;23738;50.422;18.758;2024-03-06T03:29:32;52.50;;;29.50;;
37903;SDS011;23738;50.422;18.758;2024-03-06T03:32:02;54.60;;;27.70;;
37903;SDS011;23738;50.422;18.758;2024-03-06T03:34:34;59.90;;;28.70;;
37903;SDS011;23738;50.422;18.758;2024-03-06T03:37:03;57.50;;;26.90;;
37903;SDS011;23738;50.422;18.758;2024-03-06T03:39:33;63.00;;;25.00;;
37903;SDS011;23738;50.422;18.758;2024-03-06T03:42:03;57.10;;;25.90;;
37903;SDS011;23738;50.422;18.758;2024-03-06T03:44:33;56.20;;;27.10;;
37903;SDS011;23738;50.422;18.758;2024-03-06T03:47:02;57.10;;;28.80;;
37903;SDS011;23738;50.422;18.758;2024-03-06T03:49:33;55.10;;;28.10;;
37903;SDS011;23738;50.422;18.758;2024-03-06T03:52:03;52.70;;;26.90;;
37903;SDS011;23738;50.422;18.758;2024-03-06T03:54:33;53.80;;;29.80;;
37903;SDS011;23738;50.422;18.758;2024-03-06T03:57:02;60.00;;;29.60;;
37903;SDS011;23738;50.422;18.758;2024-03-06T03:59:33;58.10;;;28.60;;
37903;SDS011;23738;50.422;18.758;2024-03-06T04:02:03;54.40;;;27.50;;
37903;SDS011;23738;50.422;18.758;2024-03-06T04:04:33;52.50;;;25.50;;
37903;SDS011;23738;50.422;18.758;2024-03-06T04:07:02;58.10;;;29.40;;
37903;SDS011;23738;50.422;18.758;2024-03-06T04:09:33;45.90;;;26.90;;
37903;SDS011;23738;50.422;18.758;2024-03-06T04:12:03;70.60;;;27.40;;
37903;SDS011;23738;50.422;18.758;2024-03-06T04:14:33;56.70;;;29.00;;
37903;SDS011;23738;50.422;18.758;2024-03-06T04:17:03;45.90;;;26.40;;
37903;SDS011;23738;50.422;18.758;2024-03-06T04:19:33;54.00;;;26.30;;
37903;SDS011;23738;50.422;18.758;2024-03-06T04:22:03;101.80;;;42.80;;
37903;SDS011;23738;50.422;18.758;2024-03-06T04:24:32;71.00;;;35.40;;
37903;SDS011;23738;50.422;18.758;2024-03-06T04:27:02;81.00;;;34.80;;
37903;SDS011;23738;50.422;18.758;2024-03-06T04:29:32;84.90;;;35.70;;
37903;SDS011;23738;50.422;18.758;2024-03-06T04:32:02;74.00;;;32.00;;
37903;SDS011;23738;50.422;18.758;2024-03-06T04:34:32;83.30;;;30.80;;
37903;SDS011;23738;50.422;18.758;2024-03-06T04:37:02;59.80;;;30.00;;
37903;SDS011;23738;50.422;18.758;2024-03-06T04:39:33;55.70;;;28.80;;
37903;SDS011;23738;50.422;18.758;2024-03-06T04:42:03;57.40;;;28.40;;
37903;SDS011;23738;50.422;18.758;2024-03-06T04:44:34;56.20;;;26.30;;
37903;SDS011;23738;50.422;18.758;2024-03-06T04:47:04;54.90;;;26.00;;
37903;SDS011;23738;50.422;18.758;2024-03-06T04:49:34;51.50;;;28.10;;
37903;SDS011;23738;50.422;18.758;2024-03-06T04:52:03;69.30;;;34.20;;
37903;SDS011;23738;50.422;18.758;2024-03-06T04:54:33;49.90;;;27.00;;
37903;SDS011;23738;50.422;18.758;2024-03-06T04:57:04;63.50;;;31.00;;
37903;SDS011;23738;50.422;18.758;2024-03-06T04:59:33;55.60;;;29.30;;
37903;SDS011;23738;50.422;18.758;2024-03-06T05:02:03;58.10;;;30.10;;
37903;SDS011;23738;50.422;18.758;2024-03-06T05:04:33;47.00;;;26.70;;
37903;SDS011;23738;50.422;18.758;2024-03-06T05:07:03;49.90;;;24.80;;
37903;SDS011;23738;50.422;18.758;2024-03-06T05:09:33;48.50;;;25.60;;
37903;SDS011;23738;50.422;18.758;2024-03-06T05:12:03;49.20;;;27.30;;
37903;SDS011;23738;50.422;18.758;2024-03-06T05:14:33;46.60;;;25.90;;
37903;SDS011;23738;50.422;18.758;2024-03-06T05:17:03;49.70;;;26.40;;
37903;SDS011;23738;50.422;18.758;2024-03-06T05:19:33;56.60;;;27.90;;
37903;SDS011;23738;50.422;18.758;2024-03-06T05:22:02;56.90;;;29.00;;
37903;SDS011;23738;50.422;18.758;2024-03-06T05:24:32;60.10;;;30.40;;
37903;SDS011;23738;50.422;18.758;2024-03-06T05:27:02;52.80;;;27.70;;
37903;SDS011;23738;50.422;18.758;2024-03-06T05:29:32;44.40;;;24.20;;
37903;SDS011;23738;50.422;18.758;2024-03-06T05:32:02;57.30;;;27.10;;
37903;SDS011;23738;50.422;18.758;2024-03-06T05:34:33;54.00;;;27.10;;
37903;SDS011;23738;50.422;18.758;2024-03-06T05:37:03;45.90;;;24.30;;
37903;SDS011;23738;50.422;18.758;2024-03-06T05:39:33;59.90;;;27.10;;
37903;SDS011;23738;50.422;18.758;2024-03-06T05:42:04;54.70;;;26.90;;
37903;SDS011;23738;50.422;18.758;2024-03-06T05:44:34;59.20;;;28.20;;
37903;SDS011;23738;50.422;18.758;2024-03-06T05:47:04;59.90;;;29.10;;
37903;SDS011;23738;50.422;18.758;2024-03-06T05:49:34;59.30;;;28.50;;
37903;SDS011;23738;50.422;18.758;2024-03-06T05:52:04;68.50;;;27.80;;
37903;SDS011;23738;50.422;18.758;2024-03-06T05:54:34;62.00;;;27.20;;
37903;SDS011;23738;50.422;18.758;2024-03-06T05:57:04;51.50;;;26.60;;
37903;SDS011;23738;50.422;18.758;2024-03-06T05:59:34;60.10;;;29.60;;
37903;SDS011;23738;50.422;18.758;2024-03-06T06:02:07;62.20;;;30.00;;
37903;SDS011;23738;50.422;18.758;2024-03-06T06:04:37;57.00;;;29.90;;
37903;SDS011;23738;50.422;18.758;2024-03-06T06:07:06;73.30;;;32.90;;
37903;SDS011;23738;50.422;18.758;2024-03-06T06:09:36;76.60;;;34.80;;
37903;SDS011;23738;50.422;18.758;2024-03-06T06:12:07;75.90;;;33.40;;
37903;SDS011;23738;50.422;18.758;2024-03-06T06:14:36;98.30;;;32.60;;
37903;SDS011;23738;50.422;18.758;2024-03-06T06:17:06;71.30;;;30.90;;
37903;SDS011;23738;50.422;18.758;2024-03-06T06:19:35;64.40;;;29.60;;
37903;SDS011;23738;50.422;18.758;2024-03-06T06:22:05;69.10;;;31.50;;
37903;SDS011;23738;50.422;18.758;2024-03-06T06:24:35;75.20;;;32.50;;
37903;SDS011;23738;50.422;18.758;2024-03-06T06:27:05;79.40;;;33.00;;
37903;SDS011;23738;50.422;18.758;2024-03-06T06:29:35;90.00;;;30.60;;
37903;SDS011;23738;50.422;18.758;2024-03-06T06:32:04;83.60;;;32.00;;
37903;SDS011;23738;50.422;18.758;2024-03-06T06:34:34;76.50;;;33.30;;
37903;SDS011;23738;50.422;18.758;2024-03-06T06:37:04;67.80;;;32.00;;
37903;SDS011;23738;50.422;18.758;2024-03-06T06:39:33;89.70;;;30.70;;
37903;SDS011;23738;50.422;18.758;2024-03-06T06:42:03;66.20;;;30.60;;
37903;SDS011;23738;50.422;18.758;2024-03-06T06:44:32;72.80;;;31.70;;
37903;SDS011;23738;50.422;18.758;2024-03-06T06:47:02;75.30;;;30.70;;
37903;SDS011;23738;50.422;18.758;2024-03-06T06:49:32;70.50;;;34.60;;
37903;SDS011;23738;50.422;18.758;2024-03-06T06:52:03;68.60;;;32.30;;
37903;SDS011;23738;50.422;18.758;2024-03-06T06:54:33;88.80;;;32.30;;
37903;SDS011;23738;50.422;18.758;2024-03-06T06:57:02;75.20;;;32.20;;
37903;SDS011;23738;50.422;18.758;2024-03-06T06:59:32;71.30;;;31.00;;
37903;SDS011;23738;50.422;18.758;2024-03-06T07:02:02;76.90;;;33.00;;
37903;SDS011;23738;50.422;18.758;2024-03-06T07:04:32;80.80;;;32.60;;
37903;SDS011;23738;50.422;18.758;2024-03-06T07:07:02;84.60;;;34.90;;
37903;SDS011;23738;50.422;18.758;2024-03-06T07:09:31;75.00;;;32.10;;
37903;SDS011;23738;50.422;18.758;2024-03-06T07:12:01;94.00;;;36.50;;
37903;SDS011;23738;50.422;18.758;2024-03-06T07:14:31;86.10;;;37.10;;
37903;SDS011;23738;50.422;18.758;2024-03-06T07:17:01;100.00;;;41.90;;
37903;SDS011;23738;50.422;18.758;2024-03-06T07:19:31;85.40;;;35.90;;
37903;SDS011;23738;50.422;18.758;2024-03-06T07:22:00;95.10;;;41.10;;
37903;SDS011;23738;50.422;18.758;2024-03-06T07:24:29;66.00;;;31.50;;
37903;SDS011;23738;50.422;18.758;2024-03-06T07:26:59;68.50;;;32.40;;
37903;SDS011;23738;50.422;18.758;2024-03-06T07:29:29;71.60;;;34.30;;
37903;SDS011;23738;50.422;18.758;2024-03-06T07:31:58;74.50;;;36.50;;
37903;SDS011;23738;50.422;18.758;2024-03-06T07:34:28;90.00;;;40.30;;
37903;SDS011;23738;50.422;18.758;2024-03-06T07:36:58;65.30;;;32.40;;
37903;SDS011;23738;50.422;18.758;2024-03-06T07:39:28;72.10;;;32.30;;
37903;SDS011;23738;50.422;18.758;2024-03-06T07:41:58;80.90;;;33.30;;
37903;SDS011;23738;50.422;18.758;2024-03-06T07:44:29;59.10;;;30.70;;
37903;SDS011;23738;50.422;18.758;2024-03-06T07:46:58;58.90;;;31.50;;
37903;SDS011;23738;50.422;18.758;2024-03-06T07:49:28;66.60;;;31.20;;
37903;SDS011;23738;50.422;18.758;2024-03-06T07:51:58;55.90;;;30.20;;
37903;SDS011;23738;50.422;18.758;2024-03-06T07:54:27;67.80;;;34.70;;
37903;SDS011;23738;50.422;18.758;2024-03-06T07:56:57;62.60;;;30.90;;
37903;SDS011;23738;50.422;18.758;2024-03-06T07:59:26;63.90;;;31.00;;
37903;SDS011;23738;50.422;18.758;2024-03-06T08:01:56;71.60;;;36.10;;
37903;SDS011;23738;50.422;18.758;2024-03-06T08:04:25;54.20;;;28.80;;
37903;SDS011;23738;50.422;18.758;2024-03-06T08:06:55;51.90;;;28.70;;
37903;SDS011;23738;50.422;18.758;2024-03-06T08:09:25;46.80;;;27.70;;
37903;SDS011;23738;50.422;18.758;2024-03-06T08:11:55;39.30;;;24.80;;
37903;SDS011;23738;50.422;18.758;2024-03-06T08:14:24;43.40;;;24.50;;
37903;SDS011;23738;50.422;18.758;2024-03-06T08:16:54;41.30;;;24.80;;
37903;SDS011;23738;50.422;18.758;2024-03-06T08:19:24;42.50;;;24.90;;
37903;SDS011;23738;50.422;18.758;2024-03-06T08:21:53;43.30;;;24.20;;
37903;SDS011;23738;50.422;18.758;2024-03-06T08:24:23;39.60;;;24.20;;
37903;SDS011;23738;50.422;18.758;2024-03-06T08:26:52;38.20;;;24.30;;
37903;SDS011;23738;50.422;18.758;2024-03-06T08:29:23;40.60;;;25.20;;
37903;SDS011;23738;50.422;18.758;2024-03-06T08:31:54;39.00;;;25.10;;
37903;SDS011;23738;50.422;18.758;2024-03-06T08:34:26;34.90;;;23.40;;
37903;SDS011;23738;50.422;18.758;2024-03-06T08:36:56;32.90;;;21.40;;
37903;SDS011;23738;50.422;18.758;2024-03-06T08:39:25;27.10;;;20.10;;
37903;SDS011;23738;50.422;18.758;2024-03-06T08:41:55;23.80;;;19.50;;
37903;SDS011;23738;50.422;18.758;2024-03-06T08:44:26;41.80;;;27.60;;
37903;SDS011;23738;50.422;18.758;2024-03-06T08:46:57;40.00;;;27.00;;
37903;SDS011;23738;50.422;18.758;2024-03-06T08:49:27;36.30;;;25.90;;
37903;SDS011;23738;50.422;18.758;2024-03-06T08:51:56;29.90;;;21.30;;
37903;SDS011;23738;50.422;18.758;2024-03-06T08:54:26;27.40;;;19.70;;
37903;SDS011;23738;50.422;18.758;2024-03-06T08:56:57;29.90;;;22.70;;
37903;SDS011;23738;50.422;18.758;2024-03-06T08:59:27;35.60;;;24.70;;
37903;SDS011;23738;50.422;18.758;2024-03-06T09:01:56;28.90;;;20.60;;
37903;SDS011;23738;50.422;18.758;2024-03-06T09:04:27;24.40;;;19.50;;
37903;SDS011;23738;50.422;18.758;2024-03-06T09:06:56;31.80;;;23.50;;
37903;SDS011;23738;50.422;18.758;2024-03-06T09:09:26;29.30;;;23.00;;
37903;SDS011;23738;50.422;18.758;2024-03-06T09:11:56;23.50;;;18.30;;
37903;SDS011;23738;50.422;18.758;2024-03-06T09:14:25;20.90;;;16.70;;
37903;SDS011;23738;50.422;18.758;2024-03-06T09:16:55;16.50;;;14.70;;
37903;SDS011;23738;50.422;18.758;2024-03-06T09:19:25;18.90;;;16.60;;
37903;SDS011;23738;50.422;18.758;2024-03-06T09:21:55;18.70;;;16.80;;
37903;SDS011;23738;50.422;18.758;2024-03-06T09:24:24;19.40;;;17.30;;
37903;SDS011;23738;50.422;18.758;2024-03-06T09:26:54;18.10;;;16.00;;
37903;SDS011;23738;50.422;18.758;2024-03-06T09:29:24;16.50;;;14.70;;
37903;SDS011;23738;50.422;18.758;2024-03-06T09:31:53;21.70;;;15.80;;
37903;SDS011;23738;50.422;18.758;2024-03-06T09:34:23;18.80;;;16.10;;
37903;SDS011;23738;50.422;18.758;2024-03-06T09:36:52;20.10;;;15.50;;
37903;SDS011;23738;50.422;18.758;2024-03-06T09:39:22;19.30;;;15.10;;
37903;SDS011;23738;50.422;18.758;2024-03-06T09:41:52;17.50;;;15.40;;
37903;SDS011;23738;50.422;18.758;2024-03-06T09:44:23;21.50;;;15.00;;
37903;SDS011;23738;50.422;18.758;2024-03-06T09:46:53;15.20;;;13.60;;
37903;SDS011;23738;50.422;18.758;2024-03-06T09:49:27;15.60;;;13.00;;
37903;SDS011;23738;50.422;18.758;2024-03-06T09:51:57;15.30;;;13.70;;
37903;SDS011;23738;50.422;18.758;2024-03-06T09:54:28;16.90;;;15.30;;
37903;SDS011;23738;50.422;18.758;2024-03-06T09:56:58;17.50;;;15.70;;
37903;SDS011;23738;50.422;18.758;2024-03-06T09:59:28;18.70;;;16.20;;
37903;SDS011;23738;50.422;18.758;2024-03-06T10:01:58;21.60;;;17.10;;
37903;SDS011;23738;50.422;18.758;2024-03-06T10:04:32;22.30;;;17.10;;
37903;SDS011;23738;50.422;18.758;2024-03-06T10:07:03;20.20;;;16.30;;
37903;SDS011;23738;50.422;18.758;2024-03-06T10:09:34;19.20;;;16.40;;
37903;SDS011;23738;50.422;18.758;2024-03-06T10:12:05;20.50;;;16.50;;
37903;SDS011;23738;50.422;18.758;2024-03-06T10:14:36;20.90;;;17.70;;
37903;SDS011;23738;50.422;18.758;2024-03-06T10:17:06;23.80;;;17.90;;
37903;SDS011;23738;50.422;18.758;2024-03-06T10:19:36;27.70;;;19.20;;
37903;SDS011;23738;50.422;18.758;2024-03-06T10:22:07;22.20;;;17.80;;
37903;SDS011;23738;50.422;18.758;2024-03-06T10:24:37;23.60;;;18.30;;
37903;SDS011;23738;50.422;18.758;2024-03-06T10:27:08;22.30;;;18.80;;
37903;SDS011;23738;50.422;18.758;2024-03-06T10:29:41;25.20;;;20.70;;
37903;SDS011;23738;50.422;18.758;2024-03-06T10:32:16;22.90;;;19.60;;
37903;SDS011;23738;50.422;18.758;2024-03-06T10:34:47;29.20;;;20.50;;
37903;SDS011;23738;50.422;18.758;2024-03-06T10:37:17;24.30;;;20.20;;
37903;SDS011;23738;50.422;18.758;2024-03-06T10:39:48;28.50;;;20.10;;
37903;SDS011;23738;50.422;18.758;2024-03-06T10:42:23;25.60;;;18.50;;
37903;SDS011;23738;50.422;18.758;2024-03-06T10:44:56;30.40;;;20.20;;
37903;SDS011;23738;50.422;18.758;2024-03-06T10:47:29;27.90;;;21.20;;
37903;SDS011;23738;50.422;18.758;2024-03-06T10:50:00;25.30;;;20.00;;
37903;SDS011;23738;50.422;18.758;2024-03-06T10:52:36;39.20;;;25.30;;
37903;SDS011;23738;50.422;18.758;2024-03-06T10:55:08;113.40;;;43.40;;
37903;SDS011;23738;50.422;18.758;2024-03-06T10:57:38;45.60;;;25.60;;
37903;SDS011;23738;50.422;18.758;2024-03-06T11:00:10;92.40;;;41.90;;
37903;SDS011;23738;50.422;18.758;2024-03-06T11:02:47;89.60;;;42.60;;
37903;SDS011;23738;50.422;18.758;2024-03-06T11:05:16;72.80;;;36.80;;
37903;SDS011;23738;50.422;18.758;2024-03-06T11:07:46;103.60;;;49.20;;
37903;SDS011;23738;50.422;18.758;2024-03-06T11:10:30;87.80;;;41.50;;
37903;SDS011;23738;50.422;18.758;2024-03-06T11:13:01;54.10;;;28.90;;
37903;SDS011;23738;50.422;18.758;2024-03-06T11:15:36;82.60;;;37.80;;
37903;SDS011;23738;50.422;18.758;2024-03-06T11:24:17;43.10;;;26.10;;
37903;SDS011;23738;50.422;18.758;2024-03-06T11:26:48;50.40;;;29.50;;
37903;SDS011;23738;50.422;18.758;2024-03-06T11:29:23;51.80;;;29.40;;
37903;SDS011;23738;50.422;18.758;2024-03-06T11:32:02;49.10;;;28.20;;
37903;SDS011;23738;50.422;18.758;2024-03-06T11:34:34;37.50;;;23.20;;
37903;SDS011;23738;50.422;18.758;2024-03-06T11:37:05;46.50;;;27.30;;
37903;SDS011;23738;50.422;18.758;2024-03-06T11:39:36;46.30;;;27.30;;
37903;SDS011;23738;50.422;18.758;2024-03-06T11:42:07;51.30;;;30.90;;
37903;SDS011;23738;50.422;18.758;2024-03-06T11:44:41;60.90;;;35.40;;
37903;SDS011;23738;50.422;18.758;2024-03-06T11:47:23;58.90;;;33.80;;
37903;SDS011;23738;50.422;18.758;2024-03-06T11:49:53;56.80;;;33.50;;
37903;SDS011;23738;50.422;18.758;2024-03-06T11:52:23;56.10;;;31.90;;
37903;SDS011;23738;50.422;18.758;2024-03-06T11:54:53;31.20;;;21.80;;
37903;SDS011;23738;50.422;18.758;2024-03-06T11:57:22;51.30;;;30.80;;
37903;SDS011;23738;50.422;18.758;2024-03-06T11:59:52;52.10;;;32.80;;
37903;SDS011;23738;50.422;18.758;2024-03-06T12:02:22;43.80;;;28.40;;
37903;SDS011;23738;50.422;18.758;2024-03-06T12:04:51;42.70;;;30.00;;
37903;SDS011;23738;50.422;18.758;2024-03-06T12:07:21;45.90;;;28.60;;
37903;SDS011;23738;50.422;18.758;2024-03-06T12:09:51;30.40;;;23.10;;
37903;SDS011;23738;50.422;18.758;2024-03-06T12:12:21;48.70;;;29.80;;
37903;SDS011;23738;50.422;18.758;2024-03-06T12:14:58;37.50;;;25.00;;
37903;SDS011;23738;50.422;18.758;2024-03-06T12:17:33;29.40;;;21.10;;
37903;SDS011;23738;50.422;18.758;2024-03-06T12:20:13;27.90;;;21.60;;
37903;SDS011;23738;50.422;18.758;2024-03-06T12:22:48;28.20;;;21.30;;
37903;SDS011;23738;50.422;18.758;2024-03-06T12:25:21;30.50;;;22.40;;
37903;SDS011;23738;50.422;18.758;2024-03-06T12:27:52;30.50;;;22.50;;
37903;SDS011;23738;50.422;18.758;2024-03-06T12:30:22;32.40;;;21.90;;
37903;SDS011;23738;50.422;18.758;2024-03-06T12:32:58;26.20;;;20.80;;
37903;SDS011;23738;50.422;18.758;2024-03-06T12:35:31;31.30;;;21.90;;
37903;SDS011;23738;50.422;18.758;2024-03-06T12:38:00;30.30;;;21.60;;
37903;SDS011;23738;50.422;18.758;2024-03-06T12:40:41;30.50;;;22.40;;
37903;SDS011;23738;50.422;18.758;2024-03-06T12:43:10;31.60;;;22.10;;
37903;SDS011;23738;50.422;18.758;2024-03-06T12:45:41;37.10;;;25.50;;
37903;SDS011;23738;50.422;18.758;2024-03-06T12:48:10;30.20;;;22.10;;
37903;SDS011;23738;50.422;18.758;2024-03-06T12:50:40;36.60;;;22.50;;
37903;SDS011;23738;50.422;18.758;2024-03-06T12:53:10;34.50;;;21.80;;
37903;SDS011;23738;50.422;18.758;2024-03-06T12:55:39;37.50;;;24.80;;
37903;SDS011;23738;50.422;18.758;2024-03-06T12:58:12;34.00;;;23.20;;
37903;SDS011;23738;50.422;18.758;2024-03-06T13:00:43;36.10;;;24.40;;
37903;SDS011;23738;50.422;18.758;2024-03-06T13:03:13;36.80;;;24.90;;
37903;SDS011;23738;50.422;18.758;2024-03-06T13:05:43;47.70;;;27.20;;
37903;SDS011;23738;50.422;18.758;2024-03-06T13:08:13;41.90;;;24.80;;
37903;SDS011;23738;50.422;18.758;2024-03-06T13:10:43;35.80;;;23.40;;
37903;SDS011;23738;50.422;18.758;2024-03-06T13:13:13;36.00;;;25.00;;
37903;SDS011;23738;50.422;18.758;2024-03-06T13:15:43;36.60;;;24.50;;
37903;SDS011;23738;50.422;18.758;2024-03-06T13:18:15;41.10;;;26.80;;
37903;SDS011;23738;50.422;18.758;2024-03-06T13:20:44;48.50;;;27.80;;
37903;SDS011;23738;50.422;18.758;2024-03-06T13:23:14;51.30;;;29.10;;
37903;SDS011;23738;50.422;18.758;2024-03-06T13:25:44;47.80;;;27.40;;
37903;SDS011;23738;50.422;18.758;2024-03-06T13:28:14;47.90;;;26.50;;
37903;SDS011;23738;50.422;18.758;2024-03-06T13:30:43;47.40;;;27.40;;
37903;SDS011;23738;50.422;18.758;2024-03-06T13:33:13;48.00;;;28.80;;
37903;SDS011;23738;50.422;18.758;2024-03-06T13:35:43;50.50;;;27.70;;
37903;SDS011;23738;50.422;18.758;2024-03-06T13:38:12;73.00;;;37.90;;
37903;SDS011;23738;50.422;18.758;2024-03-06T13:40:42;67.40;;;37.00;;
37903;SDS011;23738;50.422;18.758;2024-03-06T13:43:11;68.10;;;33.00;;
37903;SDS011;23738;50.422;18.758;2024-03-06T13:45:47;65.00;;;34.60;;
37903;SDS011;23738;50.422;18.758;2024-03-06T13:48:18;60.40;;;32.10;;
37903;SDS011;23738;50.422;18.758;2024-03-06T13:50:49;58.40;;;33.00;;
37903;SDS011;23738;50.422;18.758;2024-03-06T13:53:19;69.70;;;37.70;;
37903;SDS011;23738;50.422;18.758;2024-03-06T13:55:49;63.20;;;34.70;;
37903;SDS011;23738;50.422;18.758;2024-03-06T13:58:18;62.10;;;33.90;;
37903;SDS011;23738;50.422;18.758;2024-03-06T14:00:48;54.50;;;30.80;;
37903;SDS011;23738;50.422;18.758;2024-03-06T14:03:18;60.60;;;33.00;;
37903;SDS011;23738;50.422;18.758;2024-03-06T14:05:49;55.50;;;31.20;;
37903;SDS011;23738;50.422;18.758;2024-03-06T14:08:18;58.90;;;33.80;;
37903;SDS011;23738;50.422;18.758;2024-03-06T14:10:49;65.00;;;33.30;;
37903;SDS011;23738;50.422;18.758;2024-03-06T14:13:18;72.20;;;36.10;;
37903;SDS011;23738;50.422;18.758;2024-03-06T14:15:48;66.40;;;33.20;;
37903;SDS011;23738;50.422;18.758;2024-03-06T14:18:19;69.70;;;35.50;;
37903;SDS011;23738;50.422;18.758;2024-03-06T14:20:49;67.50;;;35.30;;
37903;SDS011;23738;50.422;18.758;2024-03-06T14:23:19;65.30;;;34.80;;
37903;SDS011;23738;50.422;18.758;2024-03-06T14:25:49;64.20;;;35.40;;
37903;SDS011;23738;50.422;18.758;2024-03-06T14:28:19;72.50;;;38.30;;
37903;SDS011;23738;50.422;18.758;2024-03-06T14:30:49;69.50;;;35.70;;
37903;SDS011;23738;50.422;18.758;2024-03-06T14:33:19;81.00;;;37.30;;
37903;SDS011;23738;50.422;18.758;2024-03-06T14:35:49;77.90;;;37.70;;